createdAt,value
2018-08-22T00:00:37.535Z,17.33
2018-08-22T00:03:08.982Z,15.33
2018-08-22T00:05:40.248Z,15.33
2018-08-22T00:08:11.395Z,16.43
2018-08-22T00:10:42.616Z,16.30
2018-08-22T00:13:14.022Z,15.77
2018-08-22T00:15:45.420Z,16.50
2018-08-22T00:18:16.558Z,16.77
2018-08-22T00:20:47.595Z,17.57
2018-08-22T00:23:19.345Z,16.07
2018-08-22T00:25:50.768Z,15.50
2018-08-22T00:28:22.392Z,15.40
2018-08-22T00:30:54.077Z,15.27
2018-08-22T00:33:25.108Z,14.97
2018-08-22T00:35:56.781Z,13.40
2018-08-22T00:38:28.067Z,13.27
2018-08-22T00:40:59.267Z,14.37
2018-08-22T00:43:30.726Z,14.00
2018-08-22T00:46:02.319Z,12.70
2018-08-22T00:48:33.624Z,14.13
2018-08-22T00:51:05.487Z,11.77
2018-08-22T00:53:37.039Z,12.10
2018-08-22T00:56:08.372Z,15.50
2018-08-22T00:58:39.585Z,14.03
2018-08-22T01:01:10.736Z,11.50
2018-08-22T01:03:42.000Z,15.37
2018-08-22T01:06:13.319Z,13.53
2018-08-22T01:08:44.556Z,12.27
2018-08-22T01:11:16.215Z,12.37
2018-08-22T01:13:47.479Z,14.13
2018-08-22T01:16:18.707Z,10.83
2018-08-22T01:18:50.365Z,11.03
2018-08-22T01:21:21.675Z,13.77
2018-08-22T01:23:52.699Z,12.40
2018-08-22T01:26:23.861Z,14.60
2018-08-22T01:28:55.045Z,13.53
2018-08-22T01:31:25.999Z,10.60
2018-08-22T01:33:57.458Z,11.10
2018-08-22T01:36:28.805Z,17.13
2018-08-22T01:38:59.994Z,11.83
2018-08-22T01:41:31.425Z,11.10
2018-08-22T01:44:02.756Z,13.80
2018-08-22T01:46:33.977Z,10.97
2018-08-22T01:49:05.019Z,10.90
2018-08-22T01:51:36.154Z,11.77
2018-08-22T01:54:07.476Z,13.43
2018-08-22T01:56:38.717Z,12.67
2018-08-22T01:59:09.943Z,10.60
2018-08-22T02:01:42.171Z,14.20
2018-08-22T02:04:13.520Z,11.17
2018-08-22T02:06:44.863Z,14.37
2018-08-22T02:09:16.073Z,10.37
2018-08-22T02:11:48.019Z,12.37
2018-08-22T02:14:19.039Z,12.10
2018-08-22T02:16:50.326Z,12.53
2018-08-22T02:19:21.917Z,12.50
2018-08-22T02:21:53.499Z,10.50
2018-08-22T02:24:25.188Z,12.33
2018-08-22T02:26:56.372Z,11.97
2018-08-22T02:29:27.564Z,15.60
2018-08-22T02:31:58.764Z,12.50
2018-08-22T02:34:29.940Z,12.10
2018-08-22T02:37:02.196Z,12.20
2018-08-22T02:39:33.494Z,14.10
2018-08-22T02:42:04.774Z,12.80
2018-08-22T02:44:35.906Z,11.90
2018-08-22T02:47:06.916Z,12.07
2018-08-22T02:49:39.140Z,12.30
2018-08-22T02:52:10.439Z,13.27
2018-08-22T02:54:41.667Z,12.33
2018-08-22T02:57:12.658Z,11.33
2018-08-22T02:59:43.820Z,10.90
2018-08-22T03:02:14.843Z,11.60
2018-08-22T03:04:47.080Z,10.70
2018-08-22T03:07:18.583Z,13.13
2018-08-22T03:09:49.810Z,12.03
2018-08-22T03:12:21.438Z,11.53
2018-08-22T03:14:53.028Z,11.73
2018-08-22T03:17:24.174Z,14.30
2018-08-22T03:19:55.528Z,12.50
2018-08-22T03:22:26.723Z,11.60
2018-08-22T03:24:58.332Z,12.30
2018-08-22T03:27:29.664Z,13.10
2018-08-22T03:30:00.712Z,11.73
2018-08-22T03:32:32.055Z,11.27
2018-08-22T03:35:03.103Z,13.60
2018-08-22T03:37:34.317Z,12.33
2018-08-22T03:40:05.668Z,11.73
2018-08-22T03:42:36.840Z,11.60
2018-08-22T03:45:08.402Z,12.10
2018-08-22T03:47:39.607Z,11.73
2018-08-22T03:50:10.830Z,14.03
2018-08-22T03:52:41.808Z,12.73
2018-08-22T03:55:13.059Z,11.93
2018-08-22T03:57:44.377Z,11.87
2018-08-22T04:00:15.563Z,12.57
2018-08-22T04:02:46.772Z,13.40
2018-08-22T04:05:17.954Z,12.53
2018-08-22T04:07:48.998Z,14.43
2018-08-22T04:10:20.138Z,12.57
2018-08-22T04:12:51.452Z,14.73
2018-08-22T04:15:22.536Z,14.73
2018-08-22T04:17:53.543Z,12.23
2018-08-22T04:20:24.944Z,12.73
2018-08-22T04:22:56.167Z,12.47
2018-08-22T04:25:27.414Z,11.43
2018-08-22T04:27:58.969Z,12.23
2018-08-22T04:30:30.081Z,12.50
2018-08-22T04:33:01.052Z,15.70
2018-08-22T04:35:32.091Z,13.10
2018-08-22T04:38:03.457Z,13.00
2018-08-22T04:40:35.311Z,11.43
2018-08-22T04:43:06.699Z,12.10
2018-08-22T04:45:37.823Z,14.00
2018-08-22T04:48:08.845Z,12.57
2018-08-22T04:50:40.183Z,11.77
2018-08-22T04:53:11.395Z,13.03
2018-08-22T04:55:42.636Z,13.90
2018-08-22T04:58:14.042Z,13.97
2018-08-22T05:00:45.351Z,12.90
2018-08-22T05:03:16.535Z,15.37
2018-08-22T05:05:47.729Z,12.13
2018-08-22T05:08:18.923Z,14.93
2018-08-22T05:10:50.114Z,13.27
2018-08-22T05:13:21.304Z,12.93
2018-08-22T05:15:52.491Z,12.77
2018-08-22T05:18:23.486Z,13.30
2018-08-22T05:20:54.490Z,14.33
2018-08-22T05:23:25.466Z,13.33
2018-08-22T05:25:56.533Z,12.63
2018-08-22T05:28:27.859Z,12.43
2018-08-22T05:30:59.070Z,14.97
2018-08-22T05:33:30.453Z,13.77
2018-08-22T05:36:01.498Z,13.07
2018-08-22T05:38:32.872Z,13.40
2018-08-22T05:41:04.203Z,13.27
2018-08-22T05:43:35.438Z,11.53
2018-08-22T05:46:06.736Z,16.23
2018-08-22T05:48:37.997Z,14.27
2018-08-22T05:51:08.995Z,19.43
2018-08-22T05:53:40.901Z,16.43
2018-08-22T05:56:12.146Z,14.90
2018-08-22T05:58:43.135Z,13.60
2018-08-22T06:01:14.332Z,15.97
2018-08-22T06:03:45.511Z,14.37
2018-08-22T06:06:16.763Z,13.57
2018-08-22T06:08:48.420Z,18.17
2018-08-22T06:11:19.504Z,12.37
2018-08-22T06:13:50.719Z,14.23
2018-08-22T06:16:22.425Z,13.83
2018-08-22T06:18:53.710Z,13.23
2018-08-22T06:21:25.064Z,18.37
2018-08-22T06:23:56.068Z,14.17
2018-08-22T06:26:27.556Z,14.20
2018-08-22T06:28:58.810Z,15.33
2018-08-22T06:31:29.853Z,14.67
2018-08-22T06:34:01.053Z,13.00
2018-08-22T06:36:32.193Z,12.97
2018-08-22T06:39:03.549Z,12.23
2018-08-22T06:41:35.236Z,14.20
2018-08-22T06:44:06.681Z,14.93
2018-08-22T06:46:37.996Z,12.97
2018-08-22T06:49:09.554Z,14.47
2018-08-22T06:51:40.696Z,22.43
2018-08-22T06:54:11.924Z,12.10
2018-08-22T06:56:42.927Z,11.30
2018-08-22T06:59:13.937Z,15.53
2018-08-22T07:01:45.110Z,12.70
2018-08-22T07:04:17.166Z,13.77
2018-08-22T07:06:48.448Z,14.30
2018-08-22T07:09:19.528Z,12.60
2018-08-22T07:11:51.238Z,15.23
2018-08-22T07:14:22.264Z,13.83
2018-08-22T07:16:53.428Z,16.33
2018-08-22T07:19:24.443Z,18.17
2018-08-22T07:21:55.895Z,14.23
2018-08-22T07:24:27.215Z,12.80
2018-08-22T07:26:58.393Z,12.90
2018-08-22T07:29:29.954Z,12.70
2018-08-22T07:32:01.003Z,13.23
2018-08-22T07:34:32.363Z,14.13
2018-08-22T07:37:03.574Z,10.60
2018-08-22T07:39:34.727Z,11.73
2018-08-22T07:42:05.988Z,11.70
2018-08-22T07:44:37.622Z,12.23
2018-08-22T07:47:08.757Z,14.67
2018-08-22T07:49:40.386Z,13.87
2018-08-22T07:52:12.450Z,12.83
2018-08-22T07:54:45.278Z,11.43
2018-08-22T07:57:18.220Z,15.37
2018-08-22T07:59:49.576Z,16.23
2018-08-22T08:02:20.819Z,14.07
2018-08-22T08:04:52.168Z,14.00
2018-08-22T08:07:23.364Z,14.73
2018-08-22T08:09:54.595Z,12.10
2018-08-22T08:12:30.804Z,16.33
2018-08-22T08:15:05.203Z,13.33
2018-08-22T08:17:36.431Z,14.70
2018-08-22T08:20:07.794Z,14.60
2018-08-22T08:22:39.223Z,14.63
2018-08-22T08:25:10.572Z,15.40
2018-08-22T08:27:41.997Z,13.60
2018-08-22T08:30:13.371Z,16.97
2018-08-22T08:32:44.720Z,14.93
2018-08-22T08:35:15.985Z,12.93
2018-08-22T08:37:47.320Z,13.53
2018-08-22T08:40:18.476Z,15.72
2018-08-22T08:42:50.009Z,13.40
2018-08-22T08:45:21.076Z,11.95
2018-08-22T08:47:52.269Z,11.90
2018-08-22T08:50:23.672Z,13.25
2018-08-22T08:52:54.900Z,18.05
2018-08-22T08:55:26.032Z,16.02
2018-08-22T08:57:57.404Z,15.63
2018-08-22T09:00:28.640Z,13.05
2018-08-22T09:02:59.792Z,12.60
2018-08-22T09:05:30.811Z,14.80
2018-08-22T09:08:01.783Z,18.95
2018-08-22T09:10:33.059Z,15.68
2018-08-22T09:13:04.407Z,13.25
2018-08-22T09:15:36.069Z,13.95
2018-08-22T09:18:07.368Z,13.45
2018-08-22T09:20:38.826Z,14.28
2018-08-22T09:23:10.315Z,15.03
2018-08-22T09:25:41.520Z,16.32
2018-08-22T09:28:12.684Z,14.15
2018-08-22T09:30:43.875Z,18.32
2018-08-22T09:33:15.067Z,15.15
2018-08-22T09:35:46.293Z,14.58
2018-08-22T09:38:17.443Z,13.58
2018-08-22T09:40:49.317Z,15.45
2018-08-22T09:43:20.494Z,14.30
2018-08-22T09:45:51.653Z,16.48
2018-08-22T09:48:22.851Z,14.18
2018-08-22T09:50:54.094Z,13.68
2018-08-22T09:53:25.678Z,14.23
2018-08-22T09:55:57.002Z,17.92
2018-08-22T09:58:28.384Z,11.30
2018-08-22T10:02:05.047Z,13.60
2018-08-22T10:04:36.523Z,11.38
2018-08-22T10:07:08.488Z,12.90
2018-08-22T10:09:39.619Z,13.40
2018-08-22T10:12:11.019Z,10.90
2018-08-22T10:14:42.289Z,10.60
2018-08-22T10:17:13.415Z,11.68
2018-08-22T10:19:45.108Z,14.25
2018-08-22T10:22:16.366Z,11.97
2018-08-22T10:24:47.630Z,12.13
2018-08-22T10:27:18.977Z,11.22
2018-08-22T10:29:50.583Z,12.90
2018-08-22T10:32:22.022Z,11.45
2018-08-22T10:34:53.273Z,11.15
2018-08-22T10:37:24.947Z,11.80
2018-08-22T10:39:56.113Z,11.95
2018-08-22T10:42:27.064Z,14.25
2018-08-22T10:44:58.914Z,11.00
2018-08-22T10:47:30.212Z,11.05
2018-08-22T10:50:01.413Z,11.80
2018-08-22T10:52:32.633Z,10.43
2018-08-22T10:55:04.731Z,11.22
2018-08-22T10:57:35.936Z,11.18
2018-08-22T11:00:07.456Z,11.15
2018-08-22T11:02:38.719Z,13.05
2018-08-22T11:05:09.921Z,11.45
2018-08-22T11:07:41.111Z,11.05
2018-08-22T11:10:13.093Z,10.88
2018-08-22T11:12:44.288Z,11.00
2018-08-22T11:15:15.472Z,10.93
2018-08-22T11:17:46.676Z,11.50
2018-08-22T11:20:17.888Z,11.50
2018-08-22T11:23:04.997Z,10.88
2018-08-22T11:25:52.511Z,11.40
2018-08-22T11:28:39.825Z,11.83
2018-08-22T11:31:27.517Z,11.05
2018-08-22T11:34:14.648Z,11.68
2018-08-22T11:36:57.243Z,11.43
2018-08-22T11:39:28.327Z,11.00
2018-08-22T11:41:59.652Z,10.60
2018-08-22T11:44:31.041Z,10.70
2018-08-22T11:47:02.546Z,11.18
2018-08-22T11:49:33.996Z,11.08
2018-08-22T11:52:05.281Z,11.15
2018-08-22T11:54:37.204Z,14.90
2018-08-22T11:57:08.434Z,11.30
2018-08-22T11:59:39.736Z,12.23
2018-08-22T12:02:10.739Z,16.52
2018-08-22T12:04:42.100Z,11.73
2018-08-22T12:07:13.272Z,11.35
2018-08-22T12:09:44.477Z,11.38
2018-08-22T12:12:15.663Z,11.95
2018-08-22T12:14:46.689Z,11.00
2018-08-22T12:17:18.098Z,10.23
2018-08-22T12:19:49.565Z,10.23
2018-08-22T12:22:20.979Z,12.15
2018-08-22T12:24:52.258Z,9.88
2018-08-22T12:27:24.109Z,9.68
2018-08-22T12:29:55.408Z,9.58
2018-08-22T12:32:26.571Z,10.32
2018-08-22T12:34:57.795Z,10.15
2018-08-22T12:37:28.967Z,10.03
2018-08-22T12:40:00.155Z,9.53
2018-08-22T12:42:31.641Z,9.10
2018-08-22T12:45:02.746Z,9.83
2018-08-22T12:47:33.923Z,9.63
2018-08-22T12:50:05.649Z,9.35
2018-08-22T12:52:37.428Z,9.68
2018-08-22T12:55:08.611Z,9.78
2018-08-22T12:57:39.857Z,9.30
2018-08-22T13:00:11.347Z,9.65
2018-08-22T13:02:42.645Z,9.45
2018-08-22T13:05:13.675Z,10.10
2018-08-22T13:07:45.041Z,9.15
2018-08-22T13:10:16.067Z,9.00
2018-08-22T13:12:47.415Z,9.90
2018-08-22T13:15:18.891Z,9.73
2018-08-22T13:17:50.220Z,9.23
2018-08-22T13:20:21.579Z,8.95
2018-08-22T13:22:52.814Z,10.08
2018-08-22T13:25:25.142Z,9.18
2018-08-22T13:27:56.349Z,9.18
2018-08-22T13:30:27.817Z,8.93
2018-08-22T13:32:59.127Z,8.98
2018-08-22T13:35:30.140Z,8.80
2018-08-22T13:38:01.326Z,8.90
2018-08-22T13:40:32.492Z,8.23
2018-08-22T13:43:03.729Z,9.50
2018-08-22T13:45:34.848Z,9.05
2018-08-22T13:48:06.091Z,9.00
2018-08-22T13:50:37.302Z,9.78
2018-08-22T13:53:09.476Z,9.28
2018-08-22T13:55:40.987Z,9.28
2018-08-22T13:58:12.218Z,9.70
2018-08-22T14:00:44.072Z,8.65
2018-08-22T14:03:15.380Z,8.45
2018-08-22T14:05:46.564Z,7.80
2018-08-22T14:08:17.771Z,8.95
2018-08-22T14:10:48.951Z,9.38
2018-08-22T14:13:20.119Z,9.25
2018-08-22T14:15:51.342Z,9.38
2018-08-22T14:18:22.389Z,9.35
2018-08-22T14:20:53.732Z,9.78
2018-08-22T14:23:24.905Z,9.53
2018-08-22T14:25:56.496Z,8.83
2018-08-22T14:28:27.675Z,9.70
2018-08-22T14:30:58.883Z,9.05
2018-08-22T14:33:30.421Z,9.48
2018-08-22T14:36:01.723Z,9.68
2018-08-22T14:38:33.070Z,8.78
2018-08-22T14:41:05.042Z,9.78
2018-08-22T14:43:36.000Z,8.98
2018-08-22T14:46:07.236Z,9.23
2018-08-22T14:48:38.580Z,8.65
2018-08-22T14:51:09.819Z,9.08
2018-08-22T14:53:41.168Z,9.45
2018-08-22T14:56:12.632Z,8.80
2018-08-22T14:58:43.764Z,8.90
2018-08-22T15:01:14.952Z,8.70
2018-08-22T15:03:45.948Z,8.60
2018-08-22T15:06:16.952Z,8.80
2018-08-22T15:08:48.436Z,9.45
2018-08-22T15:11:20.380Z,9.25
2018-08-22T15:13:51.672Z,8.10
2018-08-22T15:16:22.695Z,8.53
2018-08-22T15:19:00.187Z,8.80
2018-08-22T15:21:31.478Z,8.33
2018-08-22T15:24:02.749Z,9.08
2018-08-22T15:26:34.049Z,8.13
2018-08-22T15:29:05.371Z,8.75
2018-08-22T15:31:36.577Z,8.70
2018-08-22T15:34:08.034Z,8.25
2018-08-22T15:36:39.282Z,8.55
2018-08-22T15:39:11.843Z,8.55
2018-08-22T15:41:43.036Z,8.88
2018-08-22T15:44:14.243Z,8.28
2018-08-22T15:46:45.435Z,8.85
2018-08-22T15:49:16.644Z,8.58
2018-08-22T15:51:47.845Z,8.38
2018-08-22T15:54:19.028Z,8.53
2018-08-22T15:56:50.642Z,8.05
2018-08-22T15:59:21.869Z,7.95
2018-08-22T16:01:53.223Z,10.25
2018-08-22T16:04:24.579Z,8.70
2018-08-22T16:07:15.181Z,8.45
2018-08-22T16:09:46.407Z,9.20
2018-08-22T16:12:17.617Z,9.15
2018-08-22T16:14:49.039Z,9.75
2018-08-22T16:17:20.389Z,9.58
2018-08-22T16:19:51.626Z,8.73
2018-08-22T16:22:22.749Z,9.30
2018-08-22T16:24:54.306Z,9.10
2018-08-22T16:27:25.913Z,8.78
2018-08-22T16:29:57.407Z,9.00
2018-08-22T16:32:28.719Z,9.45
2018-08-22T16:34:59.692Z,9.15
2018-08-22T16:37:31.565Z,8.40
2018-08-22T16:40:02.707Z,9.58
2018-08-22T16:42:38.963Z,9.58
2018-08-22T16:45:10.375Z,9.28
2018-08-22T16:47:42.367Z,9.68
2018-08-22T16:50:13.934Z,8.90
2018-08-22T16:52:44.936Z,9.43
2018-08-22T16:55:22.171Z,9.50
2018-08-22T16:57:54.375Z,9.15
2018-08-22T17:00:36.118Z,8.85
2018-08-22T17:03:08.234Z,9.23
2018-08-22T17:05:39.555Z,8.98
2018-08-22T17:08:10.594Z,8.80
2018-08-22T17:10:57.411Z,9.10
2018-08-22T17:13:43.037Z,9.05
2018-08-22T17:16:14.334Z,9.75
2018-08-22T17:18:45.459Z,9.78
2018-08-22T17:21:18.325Z,8.63
2018-08-22T17:23:49.803Z,9.45
2018-08-22T17:26:22.120Z,8.43
2018-08-22T17:28:55.685Z,8.65
2018-08-22T17:31:28.110Z,9.15
2018-08-22T17:34:01.646Z,9.13
2018-08-22T17:36:32.992Z,9.13
2018-08-22T17:39:04.751Z,9.58
2018-08-22T17:41:36.206Z,9.55
2018-08-22T17:44:10.387Z,9.05
2018-08-22T17:46:51.153Z,9.50
2018-08-22T17:49:22.567Z,9.15
2018-08-22T17:52:06.917Z,10.53
2018-08-22T17:54:38.443Z,9.48
2018-08-22T17:57:20.821Z,9.93
2018-08-22T17:59:52.927Z,9.58
2018-08-22T18:02:24.084Z,9.98
2018-08-22T18:05:00.651Z,9.70
2018-08-22T18:07:31.775Z,9.65
2018-08-22T18:10:04.997Z,9.78
2018-08-22T18:12:36.085Z,9.80
2018-08-22T18:15:07.839Z,9.70
2018-08-22T18:17:39.067Z,9.70
2018-08-22T18:20:10.495Z,10.23
2018-08-22T18:22:41.824Z,9.80
2018-08-22T18:25:13.069Z,9.58
2018-08-22T18:27:44.767Z,9.70
2018-08-22T18:30:15.832Z,9.90
2018-08-22T18:32:47.960Z,10.23
2018-08-22T18:35:19.208Z,11.68
2018-08-22T18:37:50.591Z,11.03
2018-08-22T18:40:28.084Z,10.28
2018-08-22T18:43:08.663Z,10.45
2018-08-22T18:45:56.503Z,11.97
2018-08-22T18:48:28.191Z,9.43
2018-08-22T18:50:59.832Z,10.58
2018-08-22T18:53:31.403Z,11.30
2018-08-22T18:56:16.416Z,10.80
2018-08-22T18:58:47.919Z,10.70
2018-08-22T19:01:19.360Z,11.08
2018-08-22T19:03:51.979Z,10.55
2018-08-22T19:06:22.979Z,10.80
2018-08-22T19:08:54.045Z,11.20
2018-08-22T19:11:25.367Z,11.22
2018-08-22T19:13:56.819Z,11.48
2018-08-22T19:16:28.236Z,11.05
2018-08-22T19:18:59.552Z,11.55
2018-08-22T19:21:30.570Z,10.65
2018-08-22T19:24:04.658Z,11.63
2018-08-22T19:26:35.821Z,14.00
2018-08-22T19:29:07.595Z,12.23
2018-08-22T19:31:44.160Z,12.93
2018-08-22T19:34:15.340Z,15.37
2018-08-22T19:36:46.540Z,17.63
2018-08-22T19:39:17.733Z,17.60
2018-08-22T19:41:48.723Z,19.97
2018-08-22T19:44:19.916Z,14.93
2018-08-22T19:46:51.387Z,14.70
2018-08-22T19:49:22.537Z,15.03
2018-08-22T19:51:53.928Z,13.33
2018-08-22T19:54:26.934Z,14.87
2018-08-22T19:56:58.242Z,14.40
2018-08-22T19:59:29.415Z,13.97
2018-08-22T20:02:00.439Z,12.83
2018-08-22T20:04:33.685Z,11.63
2018-08-22T20:07:04.975Z,11.70
2018-08-22T20:09:41.151Z,11.10
2018-08-22T20:12:13.218Z,11.17
2018-08-22T20:14:52.033Z,11.10
2018-08-22T20:17:31.684Z,14.93
2018-08-22T20:20:03.700Z,11.67
2018-08-22T20:22:43.982Z,14.00
2018-08-22T20:25:15.595Z,13.33
2018-08-22T20:27:46.719Z,13.00
2018-08-22T20:30:19.060Z,12.57
2018-08-22T20:32:59.836Z,11.87
2018-08-22T20:35:38.053Z,12.17
2018-08-22T20:38:10.570Z,12.87
2018-08-22T20:40:41.570Z,16.90
2018-08-22T20:43:31.113Z,14.00
2018-08-22T20:46:02.963Z,13.27
2018-08-22T20:48:35.243Z,12.73
2018-08-22T20:51:06.519Z,14.60
2018-08-22T20:53:38.684Z,12.30
2018-08-22T20:56:09.930Z,12.63
2018-08-22T20:58:43.499Z,11.70
2018-08-22T21:01:14.680Z,12.10
2018-08-22T21:03:46.247Z,11.83
2018-08-22T21:06:17.272Z,11.20
2018-08-22T21:08:48.458Z,10.00
2018-08-22T21:11:19.463Z,10.40
2018-08-22T21:13:51.178Z,10.70
2018-08-22T21:16:22.626Z,10.63
2018-08-22T21:18:53.809Z,10.57
2018-08-22T21:21:25.471Z,10.30
2018-08-22T21:23:56.609Z,10.30
2018-08-22T21:26:44.819Z,9.90
2018-08-22T21:29:15.823Z,10.20
2018-08-22T21:31:47.145Z,10.03
2018-08-22T21:34:23.691Z,10.37
2018-08-22T21:36:55.275Z,10.23
2018-08-22T21:39:27.503Z,10.47
2018-08-22T21:41:59.008Z,11.13
2018-08-22T21:44:30.335Z,10.73
2018-08-22T21:47:06.463Z,10.67
2018-08-22T21:49:37.779Z,11.17
2018-08-22T21:52:09.056Z,12.47
2018-08-22T21:54:40.393Z,11.07
2018-08-22T21:57:11.432Z,11.17
2018-08-22T21:59:42.760Z,11.93
2018-08-22T22:02:15.168Z,11.67
2018-08-22T22:04:46.983Z,11.20
2018-08-22T22:07:18.116Z,11.47
2018-08-22T22:09:50.943Z,11.27
2018-08-22T22:12:27.062Z,12.63
2018-08-22T22:14:58.383Z,10.90
2018-08-22T22:17:29.709Z,11.00
2018-08-22T22:20:01.063Z,11.00
2018-08-22T22:22:32.250Z,10.60
2018-08-22T22:25:03.555Z,11.30
2018-08-22T22:27:34.960Z,10.63
2018-08-22T22:30:07.162Z,10.47
2018-08-22T22:34:46.255Z,11.00
2018-08-22T22:37:18.090Z,11.13
2018-08-22T22:39:49.944Z,11.83
2018-08-22T22:42:26.771Z,11.13
2018-08-22T22:44:59.090Z,11.17
2018-08-22T22:47:31.465Z,10.57
2018-08-22T22:50:03.366Z,10.80
2018-08-22T22:52:40.355Z,11.37
2018-08-22T22:55:12.043Z,11.13
2018-08-22T22:57:44.336Z,10.47
2018-08-22T23:00:16.486Z,10.93
2018-08-22T23:02:52.504Z,10.90
2018-08-22T23:05:28.068Z,10.70
2018-08-22T23:08:00.437Z,11.43
2018-08-22T23:10:31.471Z,11.00
2018-08-22T23:13:02.457Z,11.10
2018-08-22T23:15:34.508Z,12.07
2018-08-22T23:18:05.919Z,10.70
2018-08-22T23:20:39.255Z,11.63
2018-08-22T23:23:29.257Z,11.17
2018-08-22T23:26:07.400Z,10.90
2018-08-22T23:28:38.709Z,11.70
2018-08-22T23:31:09.720Z,11.20
2018-08-22T23:33:40.735Z,11.30
2018-08-22T23:36:11.879Z,11.23
2018-08-22T23:38:43.067Z,11.53
2018-08-22T23:41:14.262Z,10.70
2018-08-22T23:43:51.042Z,11.03
2018-08-22T23:46:22.172Z,11.47
2018-08-22T23:48:59.126Z,11.50
2018-08-22T23:51:30.255Z,11.77
2018-08-22T23:54:01.629Z,11.40
2018-08-22T23:56:32.808Z,11.73
2018-08-22T23:59:03.871Z,11.07
